Flight Track Log - Related Links

Times and Time Zones

All times are in EDT time to prevent confusion due to time zone crossing. See the EJA929 flight status page for this flight to view local times or setup timezone preferences in your user account.

Time Position Orientation Groundspeed Altitude Reporting Facility
EDT Latitude Longitude Course Direction KTS MPH feet Rate Location/Type
Sun 02:11:19 PM 33.9950 -118.4792 250° West 178 205 2,000  Level Los Center
Sun 02:12:21 PM 33.9772 -118.5369 250° West 182 209 3,500 2,064 Climbing Los Center
Sun 02:13:24 PM 33.9708 -118.6106 264° West 218 251 6,300 2,208 Climbing Los Center
Sun 02:14:26 PM 33.9906 -118.6886 287° West 242 278 8,100 1,306 Climbing Los Center
Sun 02:15:28 PM 34.0636 -118.7297 335° Northwest 288 331 9,000 435 Climbing Los Center
Sun 02:16:30 PM 34.1350 -118.6972 21° North 301 346 9,000 290 Level Los Center
Sun 02:17:32 PM 34.2203 -118.6597 20° North 318 366 9,600 1,839 Climbing Los Center
Sun 02:18:34 PM 34.3250 -118.6442 North 326 375 12,800 2,177 Climbing Los Center
Sun 02:19:36 PM 34.4144 -118.6811 341° North 341 392 14,100 1,548 Climbing Los Center
Sun 02:20:38 PM 34.5103 -118.7244 340° North 364 419 16,000 1,790 Climbing Los Center
Sun 02:21:40 PM 34.6050 -118.7700 338° Northwest 368 423 17,800 1,742 Climbing Los Center
Sun 02:22:42 PM 34.6997 -118.8144 339° North 366 421 19,600 1,742 Climbing Los Center
Sun 02:23:44 PM 34.7942 -118.8583 339° North 365 420 21,400 1,839 Climbing Los Center
Sun 02:24:46 PM 34.8978 -118.8953 344° North 364 419 23,400 1,258 Climbing Los Center
Sun 02:25:48 PM 34.9972 -118.9297 344° North 371 427 24,000 288 Climbing Los Center
Sun 02:26:51 PM 35.1378 -118.9461 355° North 437 503 24,000  Level Los Center
Sun 02:27:53 PM 35.2656 -118.9364 North 458 527 24,000 242 Level Los Center
Sun 02:28:55 PM 35.3897 -118.9278 North 452 520 24,500 677 Climbing Los Center
Sun 02:29:57 PM 35.5169 -118.9200 North 456 525 25,400 726 Climbing Los Center
Sun 02:30:59 PM 35.6483 -118.9106 North 468 539 26,000 290 Climbing Los Center
Sun 02:32:01 PM 35.8128 -118.8989 North 490 564 26,000  Level Los Center
Sun 02:33:03 PM 35.9536 -118.8889 North 510 587 26,000  Level Oakland Center
Sun 02:34:05 PM 36.0947 -118.8786 North 510 587 26,000  Level Oakland Center
Sun 02:35:06 PM 36.2361 -118.8697 North 510 587 26,000 -244 Level Oakland Center
Sun 02:36:08 PM 36.3742 -118.8533 North 505 581 25,500 -927 Descending Oakland Center
Sun 02:37:09 PM 36.5039 -118.7978 19° North 496 571 24,100 -829 Descending Oakland Center
Sun 02:38:11 PM 36.6250 -118.7381 22° Northeast 475 547 23,800 -1,317 Descending Oakland Center
Sun 02:39:12 PM 36.7631 -118.6697 22° Northeast 448 516 21,400 -2,195 Descending Oakland Center
Sun 02:40:14 PM 36.8733 -118.6119 23° Northeast 437 503 19,300 -2,049 Descending Oakland Center
Sun 02:41:15 PM 36.9858 -118.5581 21° North 434 499 17,200 -1,087 Descending Oakland Center
Sun 02:42:21 PM 37.1044 -118.4961 23° Northeast 411 473 17,000 -141 Descending Los Center
Sun 02:43:23 PM 37.2056 -118.4381 25° Northeast 401 461 16,900 -50 Descending Los Center
Sun 02:44:20 PM 37.2881 -118.3994 20° North 398 458 16,900 -203 Level Oakland Center
Sun 02:45:21 PM 37.4161 -118.3833 North 390 449 16,500 -1,268 Descending Oakland Center
Sun 02:46:23 PM 37.5114 -118.4375 336° Northwest 382 440 14,300 -2,129 Descending Oakland Center
Sun 02:48:00 PM 37.6211 -118.4937 338° Northwest  Level FlightAware

Login

Don't have an account? Register now (free) for customized features, flight alerts, and more!